createdAt,value
2019-04-21T00:00:11.832Z,8.10
2019-04-21T00:02:44.281Z,9.63
2019-04-21T00:05:33.453Z,9.58
2019-04-21T00:08:10.854Z,8.65
2019-04-21T00:10:40.104Z,8.05
2019-04-21T00:13:05.054Z,8.20
2019-04-21T00:15:29.988Z,7.85
2019-04-21T00:17:58.826Z,8.95
2019-04-21T00:20:37.081Z,8.63
2019-04-21T00:23:19.854Z,8.48
2019-04-21T00:25:42.907Z,8.23
2019-04-21T00:28:28.966Z,8.10
2019-04-21T00:30:59.082Z,7.72
2019-04-21T00:33:13.904Z,8.15
2019-04-21T00:35:51.133Z,8.20
2019-04-21T00:38:42.699Z,7.78
2019-04-21T00:41:08.908Z,7.95
2019-04-21T00:43:32.921Z,7.47
2019-04-21T00:45:59.944Z,8.20
2019-04-21T00:48:45.658Z,8.00
2019-04-21T00:51:40.699Z,7.75
2019-04-21T00:54:03.961Z,7.55
2019-04-21T00:56:28.473Z,8.00
2019-04-21T00:59:07.117Z,7.92
2019-04-21T01:01:33.122Z,7.83
2019-04-21T01:04:04.403Z,7.30
2019-04-21T01:09:07.669Z,7.90
2019-04-21T01:11:44.835Z,8.00
2019-04-21T01:14:27.923Z,7.65
2019-04-21T01:16:45.368Z,9.05
2019-04-21T01:19:15.735Z,9.83
2019-04-21T01:21:27.445Z,10.35
2019-04-21T01:24:07.744Z,10.50
2019-04-21T01:26:42.630Z,10.98
2019-04-21T01:29:22.682Z,11.85
2019-04-21T01:31:48.048Z,12.37
2019-04-21T01:34:29.042Z,12.93
2019-04-21T01:36:54.245Z,12.37
2019-04-21T01:39:34.497Z,13.90
2019-04-21T01:42:03.560Z,13.60
2019-04-21T01:44:39.122Z,15.40
2019-04-21T01:46:58.754Z,15.75
2019-04-21T01:49:29.660Z,14.40
2019-04-21T01:52:26.934Z,14.25
2019-04-21T01:54:51.998Z,15.45
2019-04-21T01:57:27.945Z,14.43
2019-04-21T01:59:52.784Z,15.45
2019-04-21T02:02:30.374Z,15.75
2019-04-21T02:05:03.181Z,15.32
2019-04-21T02:07:34.245Z,16.12
2019-04-21T02:10:07.110Z,15.85
2019-04-21T02:12:40.603Z,16.05
2019-04-21T02:15:12.639Z,16.32
2019-04-21T02:17:34.305Z,15.43
2019-04-21T02:20:02.802Z,16.42
2019-04-21T02:22:59.176Z,16.60
2019-04-21T02:25:18.335Z,15.90
2019-04-21T02:27:51.442Z,16.40
2019-04-21T02:30:29.538Z,16.23
2019-04-21T02:33:03.780Z,16.55
2019-04-21T02:35:51.033Z,16.90
2019-04-21T02:38:11.860Z,16.32
2019-04-21T02:40:40.494Z,17.23
2019-04-21T02:43:13.456Z,17.00
2019-04-21T02:45:43.365Z,15.55
2019-04-21T02:48:26.053Z,15.72
2019-04-21T02:50:51.175Z,16.50
2019-04-21T02:53:22.766Z,17.87
2019-04-21T02:55:44.064Z,17.17
2019-04-21T02:58:31.626Z,15.68
2019-04-21T03:00:57.242Z,16.50
2019-04-21T03:03:36.330Z,17.52
2019-04-21T03:06:20.692Z,18.23
2019-04-21T03:11:14.512Z,18.45
2019-04-21T03:14:01.062Z,18.92
2019-04-21T03:24:05.305Z,17.77
2019-04-21T03:26:36.389Z,16.95
2019-04-21T03:29:12.007Z,17.17
2019-04-21T03:32:04.435Z,17.90
2019-04-21T03:39:11.386Z,17.82
2019-04-21T03:42:04.478Z,18.70
2019-04-21T03:44:26.673Z,17.67
2019-04-21T03:46:48.021Z,18.27
2019-04-21T03:49:36.477Z,18.65
2019-04-21T03:51:56.290Z,19.35
2019-04-21T03:54:26.387Z,18.57
2019-04-21T03:57:08.838Z,19.32
2019-04-21T03:59:24.668Z,18.85
2019-04-21T04:02:18.210Z,19.48
2019-04-21T04:04:53.460Z,19.87
2019-04-21T04:07:44.088Z,19.70
2019-04-21T04:10:07.729Z,19.55
2019-04-21T04:15:12.345Z,19.67
2019-04-21T04:17:40.406Z,20.50
2019-04-21T04:20:22.925Z,20.32
2019-04-21T04:22:55.329Z,19.52
2019-04-21T04:25:22.489Z,19.07
2019-04-21T04:28:00.162Z,18.05
2019-04-21T04:30:27.657Z,20.17
2019-04-21T04:32:51.896Z,18.05
2019-04-21T04:37:55.946Z,16.30
2019-04-21T04:40:50.823Z,16.65
2019-04-21T04:53:30.991Z,17.60
2019-04-21T04:58:56.720Z,17.23
2019-04-21T05:03:24.226Z,19.55
2019-04-21T05:09:03.494Z,19.30
2019-04-21T05:14:02.623Z,18.10
2019-04-21T05:21:34.740Z,17.32
2019-04-21T05:23:54.004Z,16.37
2019-04-21T05:26:17.134Z,17.65
2019-04-21T05:28:50.967Z,16.10
2019-04-21T05:31:32.780Z,16.25
2019-04-21T05:34:06.945Z,16.17
2019-04-21T05:36:48.968Z,16.62
2019-04-21T05:39:30.262Z,17.55
2019-04-21T05:41:54.197Z,20.00
2019-04-21T05:44:59.851Z,19.23
2019-04-21T05:47:20.825Z,20.72
2019-04-21T05:49:40.046Z,19.37
2019-04-21T05:52:08.131Z,20.95
2019-04-21T05:54:55.675Z,21.82
2019-04-21T05:57:15.618Z,20.20
2019-04-21T05:59:51.488Z,21.42
2019-04-21T06:02:22.250Z,21.17
2019-04-21T06:07:30.288Z,22.17
2019-04-21T06:10:02.814Z,22.90
2019-04-21T06:12:38.220Z,19.73
2019-04-21T06:15:01.716Z,22.62
2019-04-21T06:17:36.695Z,23.12
2019-04-21T06:20:07.608Z,22.85
2019-04-21T06:22:39.700Z,22.10
2019-04-21T06:25:31.629Z,22.00
2019-04-21T06:27:39.003Z,22.10
2019-04-21T06:30:13.454Z,21.48
2019-04-21T06:35:52.975Z,22.42
2019-04-21T06:38:19.429Z,22.98
2019-04-21T06:40:46.262Z,22.02
2019-04-21T06:43:22.803Z,22.02
2019-04-21T06:45:51.121Z,21.93
2019-04-21T06:48:18.686Z,22.20
2019-04-21T06:50:52.433Z,20.00
2019-04-21T06:53:23.790Z,20.85
2019-04-21T06:55:43.524Z,19.52
2019-04-21T06:58:18.390Z,19.95
2019-04-21T07:00:47.658Z,19.82
2019-04-21T07:03:32.306Z,19.98
2019-04-21T07:06:03.435Z,19.02
2019-04-21T07:08:34.558Z,19.35
2019-04-21T07:11:06.701Z,17.92
2019-04-21T07:13:30.881Z,17.67
2019-04-21T07:16:12.035Z,16.52
2019-04-21T07:18:42.905Z,15.45
2019-04-21T07:21:08.269Z,15.68
2019-04-21T07:23:45.859Z,16.07
2019-04-21T07:26:15.669Z,12.60
2019-04-21T07:28:49.746Z,14.85
2019-04-21T07:31:22.482Z,15.40
2019-04-21T07:36:33.530Z,14.15
2019-04-21T07:38:49.753Z,14.07
2019-04-21T07:41:20.088Z,12.63
2019-04-21T07:43:53.380Z,12.40
2019-04-21T07:46:25.612Z,13.15
2019-04-21T07:49:08.034Z,13.65
2019-04-21T07:51:54.899Z,13.65
2019-04-21T07:54:29.120Z,13.95
2019-04-21T07:56:36.204Z,14.90
2019-04-21T07:59:31.565Z,14.43
2019-04-21T08:01:56.373Z,15.20
2019-04-21T08:04:49.618Z,14.53
2019-04-21T08:07:21.914Z,14.30
2019-04-21T08:09:47.274Z,13.93
2019-04-21T08:12:20.272Z,12.37
2019-04-21T08:15:03.161Z,11.22
2019-04-21T08:17:24.165Z,11.45
2019-04-21T08:19:56.056Z,11.18
2019-04-21T08:22:32.133Z,11.18
2019-04-21T08:25:02.821Z,7.42
2019-04-21T08:27:36.789Z,5.60
2019-04-21T08:30:09.448Z,6.67
2019-04-21T08:32:54.001Z,6.47
2019-04-21T08:37:40.124Z,5.60
2019-04-21T08:40:17.710Z,6.87
2019-04-21T08:42:44.762Z,5.00
2019-04-21T08:45:25.836Z,3.40
2019-04-21T08:47:55.286Z,3.33
2019-04-21T08:50:21.946Z,4.10
2019-04-21T08:53:04.179Z,4.60
2019-04-21T08:55:31.813Z,4.85
2019-04-21T08:58:31.796Z,4.42
2019-04-21T09:01:10.592Z,5.60
2019-04-21T09:03:56.683Z,4.55
2019-04-21T09:06:40.293Z,4.67
2019-04-21T09:08:57.783Z,4.72
2019-04-21T09:11:22.674Z,4.50
2019-04-21T09:13:54.681Z,4.70
2019-04-21T09:16:27.978Z,4.85
2019-04-21T09:18:54.050Z,3.70
2019-04-21T09:21:49.919Z,3.60
2019-04-21T09:24:04.537Z,3.17
2019-04-21T09:26:37.003Z,3.75
2019-04-21T09:29:00.378Z,3.45
2019-04-21T09:31:25.949Z,3.20
2019-04-21T09:33:57.285Z,4.30
2019-04-21T09:36:33.414Z,5.40
2019-04-21T09:39:06.623Z,3.60
2019-04-21T09:41:29.613Z,3.20
2019-04-21T09:44:01.247Z,3.72
2019-04-21T09:46:35.494Z,3.77
2019-04-21T09:49:07.403Z,3.35
2019-04-21T09:51:34.668Z,3.22
2019-04-21T09:54:11.596Z,4.00
2019-04-21T09:56:45.578Z,3.67
2019-04-21T09:59:18.014Z,3.80
2019-04-21T10:01:55.992Z,3.72
2019-04-21T10:04:12.072Z,3.42
2019-04-21T10:06:43.179Z,3.52
2019-04-21T10:09:17.371Z,4.15
2019-04-21T10:11:45.942Z,3.92
2019-04-21T10:14:17.554Z,3.75
2019-04-21T10:16:58.089Z,9.15
2019-04-21T10:19:27.500Z,4.83
2019-04-21T10:21:59.529Z,4.10
2019-04-21T10:24:28.746Z,4.37
2019-04-21T10:26:58.972Z,4.10
2019-04-21T10:29:31.272Z,4.37
2019-04-21T10:32:01.534Z,4.90
2019-04-21T10:34:31.506Z,4.03
2019-04-21T10:37:01.370Z,4.50
2019-04-21T10:39:31.560Z,4.90
2019-04-21T10:42:05.713Z,3.80
2019-04-21T10:44:36.769Z,3.80
2019-04-21T10:47:06.939Z,3.30
2019-04-21T10:49:40.380Z,3.57
2019-04-21T10:52:17.761Z,3.60
2019-04-21T10:55:06.917Z,3.60
2019-04-21T10:57:20.525Z,3.63
2019-04-21T10:59:52.731Z,3.93
2019-04-21T11:02:23.167Z,3.50
2019-04-21T11:05:04.874Z,3.27
2019-04-21T11:07:58.902Z,3.77
2019-04-21T11:10:18.291Z,3.20
2019-04-21T11:12:48.156Z,3.00
2019-04-21T11:15:19.240Z,3.10
2019-04-21T11:17:50.531Z,3.00
2019-04-21T11:20:20.516Z,2.80
2019-04-21T11:22:51.291Z,4.33
2019-04-21T11:25:22.048Z,3.77
2019-04-21T11:27:53.159Z,2.77
2019-04-21T11:30:23.983Z,3.10
2019-04-21T11:32:55.164Z,2.50
2019-04-21T11:35:27.545Z,2.33
2019-04-21T11:38:06.092Z,2.60
2019-04-21T11:40:31.886Z,2.13
2019-04-21T11:43:02.163Z,2.10
2019-04-21T11:45:34.801Z,2.00
2019-04-21T11:48:08.203Z,2.20
2019-04-21T11:50:39.125Z,1.80
2019-04-21T11:53:08.850Z,1.83
2019-04-21T11:55:43.226Z,2.30
2019-04-21T11:58:10.022Z,1.90
2019-04-21T12:00:40.234Z,1.80
2019-04-21T12:03:12.391Z,2.00
2019-04-21T12:05:41.671Z,1.60
2019-04-21T12:08:23.096Z,1.43
2019-04-21T12:10:42.959Z,1.63
2019-04-21T12:13:14.065Z,1.80
2019-04-21T12:15:45.072Z,1.60
2019-04-21T12:18:15.547Z,2.00
2019-04-21T12:20:45.454Z,1.80
2019-04-21T12:23:16.241Z,3.73
2019-04-21T12:25:49.299Z,1.90
2019-04-21T12:28:19.694Z,1.80
2019-04-21T12:30:51.684Z,1.70
2019-04-21T12:33:38.152Z,1.87
2019-04-21T12:36:09.345Z,1.40
2019-04-21T12:38:46.981Z,1.50
2019-04-21T12:41:13.211Z,1.40
2019-04-21T12:43:42.835Z,1.43
2019-04-21T12:46:13.914Z,1.50
2019-04-21T12:48:44.235Z,1.43
2019-04-21T12:51:15.461Z,1.40
2019-04-21T12:53:45.633Z,1.53
2019-04-21T12:56:15.765Z,1.60
2019-04-21T12:58:47.116Z,1.90
2019-04-21T13:01:16.967Z,2.13
2019-04-21T13:03:48.005Z,1.70
2019-04-21T13:06:17.718Z,2.20
2019-04-21T13:08:54.487Z,1.90
2019-04-21T13:11:19.236Z,1.80
2019-04-21T13:13:49.885Z,1.90
2019-04-21T13:16:21.163Z,1.50
2019-04-21T13:18:51.206Z,1.40
2019-04-21T13:21:22.340Z,2.40
2019-04-21T13:23:52.766Z,1.70
2019-04-21T13:26:35.585Z,1.80
2019-04-21T13:28:54.243Z,1.63
2019-04-21T13:31:24.547Z,1.80
2019-04-21T13:33:55.660Z,1.80
2019-04-21T13:36:25.777Z,1.80
2019-04-21T13:39:33.058Z,1.57
2019-04-21T13:41:47.417Z,1.97
2019-04-21T13:44:15.606Z,1.87
2019-04-21T13:46:47.232Z,1.60
2019-04-21T13:49:17.365Z,1.67
2019-04-21T13:51:47.996Z,1.50
2019-04-21T13:54:18.138Z,1.80
2019-04-21T13:56:47.835Z,1.90
2019-04-21T13:59:18.289Z,1.70
2019-04-21T14:01:48.136Z,1.70
2019-04-21T14:04:17.894Z,2.00
2019-04-21T14:06:48.037Z,1.97
2019-04-21T14:09:19.847Z,2.00
2019-04-21T14:11:52.489Z,1.40
2019-04-21T14:14:21.018Z,1.80
2019-04-21T14:16:51.987Z,1.50
2019-04-21T14:19:21.888Z,1.57
2019-04-21T14:21:53.095Z,1.80
2019-04-21T14:24:22.958Z,1.60
2019-04-21T14:26:52.621Z,1.77
2019-04-21T14:29:23.560Z,1.40
2019-04-21T14:31:53.553Z,1.40
2019-04-21T14:34:23.871Z,1.57
2019-04-21T14:36:55.013Z,1.53
2019-04-21T14:39:26.270Z,1.50
2019-04-21T14:41:56.175Z,1.30
2019-04-21T14:44:27.113Z,1.30
2019-04-21T14:47:03.010Z,1.30
2019-04-21T14:49:37.423Z,2.10
2019-04-21T14:52:15.023Z,1.37
2019-04-21T14:54:49.321Z,1.40
2019-04-21T14:57:21.221Z,1.57
2019-04-21T14:59:51.179Z,1.40
2019-04-21T15:02:22.320Z,1.60
2019-04-21T15:04:53.510Z,1.60
2019-04-21T15:07:25.422Z,1.53
2019-04-21T15:10:04.419Z,1.67
2019-04-21T15:12:27.839Z,1.53
2019-04-21T15:14:58.170Z,1.40
2019-04-21T15:17:29.396Z,1.63
2019-04-21T15:20:08.022Z,1.70
2019-04-21T15:22:32.339Z,1.70
2019-04-21T15:25:02.825Z,2.30
2019-04-21T15:27:32.850Z,1.90
2019-04-21T15:30:02.944Z,1.83
2019-04-21T15:32:32.818Z,1.53
2019-04-21T15:35:04.034Z,1.50
2019-04-21T15:37:33.934Z,1.70
2019-04-21T15:40:15.004Z,1.80
2019-04-21T15:42:36.895Z,1.60
2019-04-21T15:45:08.430Z,1.80
2019-04-21T15:47:38.308Z,1.50
2019-04-21T15:50:12.619Z,1.50
2019-04-21T15:52:40.247Z,1.70
2019-04-21T15:55:18.834Z,1.47
2019-04-21T15:58:06.896Z,1.70
2019-04-21T16:00:42.621Z,1.50
2019-04-21T16:03:12.967Z,1.57
2019-04-21T16:05:42.723Z,1.53
2019-04-21T16:08:13.897Z,1.80
2019-04-21T16:10:52.146Z,1.90
2019-04-21T16:13:16.054Z,3.83
2019-04-21T16:15:46.320Z,3.37
2019-04-21T16:18:16.279Z,2.67
2019-04-21T16:20:46.007Z,3.27
2019-04-21T16:23:15.666Z,2.90
2019-04-21T16:25:46.552Z,2.60
2019-04-21T16:28:17.308Z,3.30
2019-04-21T16:30:48.789Z,2.60
2019-04-21T16:33:18.866Z,2.80
2019-04-21T16:35:49.535Z,2.90
2019-04-21T16:38:19.725Z,2.23
2019-04-21T16:40:56.225Z,1.93
2019-04-21T16:43:20.972Z,6.50
2019-04-21T16:45:52.904Z,3.70
2019-04-21T16:48:23.311Z,3.00
2019-04-21T16:50:53.227Z,2.57
2019-04-21T16:53:37.736Z,2.70
2019-04-21T16:56:15.282Z,3.00
2019-04-21T16:58:46.772Z,3.03
2019-04-21T17:01:25.701Z,3.10
2019-04-21T17:03:55.378Z,3.10
2019-04-21T17:06:29.231Z,3.07
2019-04-21T17:08:59.166Z,1.90
2019-04-21T17:11:34.683Z,2.40
2019-04-21T17:14:01.373Z,3.30
2019-04-21T17:19:13.630Z,2.80
2019-04-21T17:21:34.215Z,2.23
2019-04-21T17:24:04.489Z,2.20
2019-04-21T17:26:37.440Z,2.97
2019-04-21T17:29:06.752Z,6.07
2019-04-21T17:31:37.200Z,5.20
2019-04-21T17:34:13.642Z,3.40
2019-04-21T17:36:39.140Z,3.10
2019-04-21T17:39:13.038Z,2.50
2019-04-21T17:41:59.173Z,2.90
2019-04-21T17:44:15.113Z,2.70
2019-04-21T17:46:54.035Z,2.35
2019-04-21T17:49:18.871Z,1.97
2019-04-21T17:51:55.600Z,2.50
2019-04-21T17:54:33.265Z,2.60
2019-04-21T17:57:16.541Z,2.70
2019-04-21T17:59:58.391Z,2.37
2019-04-21T18:02:17.518Z,2.60
2019-04-21T18:04:49.626Z,2.30
2019-04-21T18:07:21.571Z,2.72
2019-04-21T18:10:00.937Z,3.50
2019-04-21T18:12:28.073Z,4.75
2019-04-21T18:15:02.061Z,5.72
2019-04-21T18:17:22.526Z,5.30
2019-04-21T18:19:54.879Z,3.67
2019-04-21T18:22:38.622Z,3.20
2019-04-21T18:25:13.748Z,3.52
2019-04-21T18:27:40.792Z,3.95
2019-04-21T18:30:16.430Z,3.58
2019-04-21T18:32:48.184Z,3.90
2019-04-21T18:35:20.889Z,4.05
2019-04-21T18:38:04.531Z,4.22
2019-04-21T18:40:32.967Z,4.40
2019-04-21T18:43:38.216Z,4.30
2019-04-21T18:48:24.709Z,4.90
2019-04-21T18:51:05.776Z,5.10
2019-04-21T18:53:46.973Z,4.00
2019-04-21T18:56:06.476Z,4.50
2019-04-21T18:58:36.011Z,6.40
2019-04-21T19:01:12.757Z,8.83
2019-04-21T19:03:42.993Z,7.78
2019-04-21T19:06:16.442Z,10.75
2019-04-21T19:09:08.297Z,9.33
2019-04-21T19:11:28.209Z,5.83
2019-04-21T19:14:19.717Z,10.82
2019-04-21T19:17:27.602Z,15.35
2019-04-21T19:21:40.374Z,8.83
2019-04-21T19:24:25.958Z,8.45
2019-04-21T19:26:52.453Z,8.95
2019-04-21T19:29:23.967Z,8.18
2019-04-21T19:34:14.308Z,9.53
2019-04-21T19:36:48.809Z,8.60
2019-04-21T19:39:23.281Z,8.98
2019-04-21T19:41:58.616Z,8.65
2019-04-21T19:44:36.573Z,8.70
2019-04-21T19:47:03.918Z,8.63
2019-04-21T19:49:43.812Z,9.50
2019-04-21T19:51:56.510Z,11.80
2019-04-21T19:54:31.629Z,11.95
2019-04-21T19:56:53.663Z,10.03
2019-04-21T19:59:32.521Z,10.10
2019-04-21T20:01:56.206Z,10.03
2019-04-21T20:04:34.087Z,10.75
2019-04-21T20:07:10.303Z,11.12
2019-04-21T20:09:46.447Z,11.10
2019-04-21T20:12:18.471Z,11.75
2019-04-21T20:14:59.114Z,11.33
2019-04-21T20:17:18.990Z,11.95
2019-04-21T20:19:38.419Z,12.13
2019-04-21T20:22:09.367Z,14.05
2019-04-21T20:24:40.082Z,14.05
2019-04-21T20:27:17.699Z,12.93
2019-04-21T20:30:02.184Z,13.18
2019-04-21T20:32:35.190Z,12.45
2019-04-21T20:35:07.982Z,12.40
2019-04-21T20:37:32.145Z,12.30
2019-04-21T20:39:59.839Z,13.40
2019-04-21T20:42:36.274Z,12.15
2019-04-21T20:45:28.990Z,12.90
2019-04-21T20:47:35.243Z,11.90
2019-04-21T20:50:09.418Z,11.83
2019-04-21T20:52:48.022Z,11.20
2019-04-21T20:55:11.941Z,12.50
2019-04-21T20:57:46.478Z,12.43
2019-04-21T21:00:23.340Z,13.22
2019-04-21T21:03:00.907Z,11.40
2019-04-21T21:05:27.455Z,13.48
2019-04-21T21:08:08.644Z,14.15
2019-04-21T21:10:34.717Z,11.20
2019-04-21T21:13:14.531Z,11.43
2019-04-21T21:15:43.930Z,11.15
2019-04-21T21:18:15.572Z,11.57
2019-04-21T21:20:45.103Z,11.33
2019-04-21T21:23:07.535Z,10.80
2019-04-21T21:26:03.135Z,11.25
2019-04-21T21:28:09.222Z,10.38
2019-04-21T21:30:43.164Z,11.35
2019-04-21T21:33:17.128Z,11.75
2019-04-21T21:35:49.404Z,11.68
2019-04-21T21:38:25.539Z,12.40
2019-04-21T21:40:54.392Z,11.48
2019-04-21T21:43:17.553Z,11.95
2019-04-21T21:45:50.058Z,13.15
2019-04-21T21:48:32.090Z,13.05
2019-04-21T21:51:02.015Z,13.68
2019-04-21T21:53:25.510Z,13.93
2019-04-21T21:55:54.451Z,13.72
2019-04-21T21:58:27.435Z,13.30
2019-04-21T22:01:02.343Z,13.15
2019-04-21T22:03:34.188Z,13.30
2019-04-21T22:06:06.153Z,13.13
2019-04-21T22:08:32.463Z,13.35
2019-04-21T22:11:03.292Z,14.05
2019-04-21T22:13:46.172Z,13.93
2019-04-21T22:16:10.620Z,13.72
2019-04-21T22:19:02.638Z,14.65
2019-04-21T22:21:18.854Z,14.13
2019-04-21T22:23:51.513Z,13.40
2019-04-21T22:26:13.376Z,13.65
2019-04-21T22:28:43.702Z,13.85
2019-04-21T22:31:20.671Z,13.98
2019-04-21T22:33:48.286Z,14.93
2019-04-21T22:36:31.285Z,13.53
2019-04-21T22:39:09.200Z,14.38
2019-04-21T22:41:28.928Z,13.53
2019-04-21T22:43:55.185Z,13.28
2019-04-21T22:46:24.407Z,13.40
2019-04-21T22:49:00.329Z,13.15
2019-04-21T22:51:35.360Z,13.28
2019-04-21T22:53:59.967Z,13.90
2019-04-21T22:56:33.609Z,13.08
2019-04-21T22:59:08.603Z,13.98
2019-04-21T23:01:40.449Z,13.43
2019-04-21T23:04:07.170Z,14.28
2019-04-21T23:06:39.628Z,13.00
2019-04-21T23:09:11.055Z,13.55
2019-04-21T23:11:45.418Z,14.23
2019-04-21T23:14:15.378Z,13.43
2019-04-21T23:16:47.226Z,12.58
2019-04-21T23:19:29.355Z,13.50
2019-04-21T23:22:04.103Z,13.65
2019-04-21T23:24:40.127Z,12.85
2019-04-21T23:26:59.780Z,12.58
2019-04-21T23:29:50.783Z,11.53
2019-04-21T23:32:12.356Z,11.90
2019-04-21T23:34:31.975Z,12.35
2019-04-21T23:37:06.724Z,11.60
2019-04-21T23:39:32.776Z,11.70
2019-04-21T23:42:03.141Z,11.25
2019-04-21T23:44:42.852Z,11.03
2019-04-21T23:47:08.624Z,11.30
2019-04-21T23:49:48.247Z,11.68
2019-04-21T23:52:10.948Z,11.88
2019-04-21T23:54:40.975Z,12.03
2019-04-21T23:57:16.235Z,11.88
2019-04-21T23:59:46.905Z,11.85
